createdAt,value
2019-01-29T00:00:01.770Z,23.23
2019-01-29T00:02:29.268Z,21.10
2019-01-29T00:04:56.740Z,19.23
2019-01-29T00:07:24.201Z,19.83
2019-01-29T00:09:51.772Z,18.63
2019-01-29T00:12:19.252Z,21.17
2019-01-29T00:14:46.789Z,20.13
2019-01-29T00:17:14.279Z,21.27
2019-01-29T00:19:41.750Z,21.33
2019-01-29T00:22:09.245Z,20.27
2019-01-29T00:24:36.741Z,24.50
2019-01-29T00:27:04.280Z,29.80
2019-01-29T00:29:31.818Z,25.30
2019-01-29T00:31:59.328Z,26.10
2019-01-29T00:34:26.797Z,26.07
2019-01-29T00:36:54.294Z,25.87
2019-01-29T00:39:21.813Z,26.03
2019-01-29T00:41:49.348Z,24.70
2019-01-29T00:44:16.875Z,24.30
2019-01-29T00:46:44.371Z,26.77
2019-01-29T00:49:11.848Z,23.80
2019-01-29T00:51:39.316Z,26.10
2019-01-29T00:54:06.821Z,26.63
2019-01-29T00:56:34.301Z,25.90
2019-01-29T00:59:01.993Z,25.43
2019-01-29T01:01:29.473Z,24.97
2019-01-29T01:03:57.045Z,23.67
2019-01-29T01:06:24.546Z,25.07
2019-01-29T01:08:52.035Z,24.93
2019-01-29T01:11:19.512Z,23.73
2019-01-29T01:13:47.115Z,25.40
2019-01-29T01:16:14.587Z,25.43
2019-01-29T01:18:42.096Z,25.57
2019-01-29T01:21:09.877Z,26.77
2019-01-29T01:23:37.295Z,27.63
2019-01-29T01:26:04.816Z,27.90
2019-01-29T01:28:32.383Z,27.00
2019-01-29T01:30:59.919Z,22.93
2019-01-29T01:33:27.405Z,20.03
2019-01-29T01:35:54.912Z,22.40
2019-01-29T01:38:22.376Z,19.17
2019-01-29T01:40:49.855Z,19.77
2019-01-29T01:43:17.361Z,21.07
2019-01-29T01:45:44.847Z,20.33
2019-01-29T01:48:12.419Z,19.10
2019-01-29T01:50:39.903Z,19.20
2019-01-29T01:53:07.381Z,18.37
2019-01-29T01:55:34.883Z,20.30
2019-01-29T01:58:02.444Z,21.00
2019-01-29T02:00:30.162Z,18.80
2019-01-29T02:02:57.673Z,19.60
2019-01-29T02:05:25.130Z,18.27
2019-01-29T02:07:52.607Z,18.90
2019-01-29T02:10:24.724Z,19.17
2019-01-29T02:12:52.195Z,19.30
2019-01-29T02:15:19.655Z,19.60
2019-01-29T02:17:47.665Z,18.27
2019-01-29T02:20:16.248Z,20.67
2019-01-29T02:22:43.807Z,21.90
2019-01-29T02:25:11.402Z,23.07
2019-01-29T02:27:38.879Z,23.57
2019-01-29T02:30:07.918Z,24.30
2019-01-29T02:32:35.412Z,24.40
2019-01-29T02:35:02.887Z,23.17
2019-01-29T02:37:30.432Z,23.70
2019-01-29T02:39:58.009Z,25.10
2019-01-29T02:42:25.567Z,23.30
2019-01-29T02:44:53.053Z,23.57
2019-01-29T02:47:20.654Z,23.00
2019-01-29T02:49:48.194Z,24.47
2019-01-29T02:52:15.675Z,22.37
2019-01-29T02:54:43.159Z,24.70
2019-01-29T02:57:10.649Z,24.57
2019-01-29T02:59:38.217Z,24.97
2019-01-29T03:02:05.893Z,25.50
2019-01-29T03:04:33.428Z,28.10
2019-01-29T03:07:00.995Z,27.17
2019-01-29T03:09:28.504Z,27.00
2019-01-29T03:11:56.051Z,24.40
2019-01-29T03:14:23.511Z,27.70
2019-01-29T03:16:50.947Z,26.47
2019-01-29T03:19:18.416Z,27.57
2019-01-29T03:21:45.912Z,26.87
2019-01-29T03:24:13.412Z,27.37
2019-01-29T03:26:40.880Z,25.80
2019-01-29T03:29:08.343Z,28.90
2019-01-29T03:31:35.841Z,27.63
2019-01-29T03:34:03.308Z,27.60
2019-01-29T03:36:30.766Z,25.67
2019-01-29T03:38:58.269Z,24.83
2019-01-29T03:41:25.808Z,26.67
2019-01-29T03:43:53.375Z,27.97
2019-01-29T03:46:20.872Z,28.70
2019-01-29T03:48:48.413Z,28.00
2019-01-29T03:51:15.880Z,28.70
2019-01-29T03:53:43.376Z,29.47
2019-01-29T03:56:10.842Z,30.97
2019-01-29T03:58:38.344Z,30.43
2019-01-29T04:01:05.946Z,27.77
2019-01-29T04:03:33.424Z,29.43
2019-01-29T04:06:00.964Z,26.50
2019-01-29T04:08:28.499Z,28.93
2019-01-29T04:10:55.964Z,29.97
2019-01-29T04:13:23.494Z,28.43
2019-01-29T04:15:51.001Z,26.87
2019-01-29T04:18:18.478Z,28.30
2019-01-29T04:20:45.940Z,27.00
2019-01-29T04:23:13.432Z,26.87
2019-01-29T04:25:40.900Z,28.67
2019-01-29T04:28:08.364Z,27.73
2019-01-29T04:30:35.862Z,29.07
2019-01-29T04:33:03.360Z,30.40
2019-01-29T04:35:30.823Z,25.77
2019-01-29T04:37:58.309Z,24.40
2019-01-29T04:40:25.849Z,27.00
2019-01-29T04:42:53.320Z,26.03
2019-01-29T04:45:20.792Z,21.83
2019-01-29T04:47:48.368Z,21.73
2019-01-29T04:50:16.760Z,23.90
2019-01-29T04:52:44.353Z,22.97
2019-01-29T04:55:13.110Z,24.63
2019-01-29T04:57:40.755Z,24.20
2019-01-29T05:00:09.758Z,24.90
2019-01-29T05:02:37.523Z,22.93
2019-01-29T05:05:06.713Z,23.37
2019-01-29T05:07:34.198Z,24.20
2019-01-29T05:10:02.007Z,20.87
2019-01-29T05:12:29.499Z,22.93
2019-01-29T05:14:57.117Z,23.20
2019-01-29T05:17:24.581Z,24.03
2019-01-29T05:19:52.175Z,23.30
2019-01-29T05:22:19.658Z,22.70
2019-01-29T05:24:47.236Z,23.50
2019-01-29T05:27:14.735Z,23.13
2019-01-29T05:29:42.217Z,21.80
2019-01-29T05:32:09.790Z,22.83
2019-01-29T05:34:37.246Z,21.50
2019-01-29T05:37:04.750Z,20.30
2019-01-29T05:39:32.255Z,20.87
2019-01-29T05:41:59.732Z,20.30
2019-01-29T05:44:27.195Z,19.70
2019-01-29T05:46:54.739Z,21.77
2019-01-29T05:49:22.214Z,20.43
2019-01-29T05:51:49.672Z,21.50
2019-01-29T05:54:17.203Z,20.93
2019-01-29T05:56:44.666Z,21.10
2019-01-29T05:59:12.139Z,22.57
2019-01-29T06:01:39.559Z,19.23
2019-01-29T06:04:07.067Z,19.83
2019-01-29T06:06:34.582Z,21.30
2019-01-29T06:09:02.086Z,20.07
2019-01-29T06:11:29.533Z,21.30
2019-01-29T06:13:57.043Z,21.17
2019-01-29T06:16:24.515Z,19.80
2019-01-29T06:18:51.993Z,19.37
2019-01-29T06:21:19.483Z,20.80
2019-01-29T06:23:47.044Z,18.13
2019-01-29T06:26:14.603Z,19.33
2019-01-29T06:28:42.104Z,20.03
2019-01-29T06:31:09.630Z,18.93
2019-01-29T06:33:37.104Z,18.70
2019-01-29T06:36:04.591Z,18.30
2019-01-29T06:38:32.055Z,18.80
2019-01-29T06:40:59.599Z,20.47
2019-01-29T06:43:27.106Z,20.87
2019-01-29T06:45:54.567Z,19.13
2019-01-29T06:48:22.145Z,20.90
2019-01-29T06:50:49.648Z,20.83
2019-01-29T06:53:17.138Z,20.87
2019-01-29T06:55:44.609Z,20.50
2019-01-29T06:58:12.152Z,20.10
2019-01-29T07:00:39.643Z,20.53
2019-01-29T07:03:07.111Z,21.77
2019-01-29T07:05:34.690Z,21.07
2019-01-29T07:08:02.189Z,20.17
2019-01-29T07:10:29.967Z,19.07
2019-01-29T07:12:57.446Z,18.93
2019-01-29T07:15:44.168Z,19.90
2019-01-29T07:18:31.608Z,19.70
2019-01-29T07:20:59.252Z,21.50
2019-01-29T07:23:26.728Z,19.43
2019-01-29T07:25:54.216Z,21.57
2019-01-29T07:28:21.687Z,20.73
2019-01-29T07:30:49.150Z,20.10
2019-01-29T07:33:16.649Z,19.40
2019-01-29T07:35:44.118Z,16.10
2019-01-29T07:38:11.591Z,18.30
2019-01-29T07:40:39.150Z,16.53
2019-01-29T07:43:06.576Z,18.87
2019-01-29T07:45:34.206Z,17.47
2019-01-29T07:48:01.665Z,17.63
2019-01-29T07:50:29.246Z,16.80
2019-01-29T07:52:56.715Z,17.33
2019-01-29T07:55:24.271Z,17.63
2019-01-29T07:57:51.875Z,17.50
2019-01-29T08:00:19.430Z,18.00
2019-01-29T08:02:47.336Z,19.63
2019-01-29T08:05:14.982Z,20.10
2019-01-29T08:07:42.455Z,19.97
2019-01-29T08:10:11.413Z,19.97
2019-01-29T08:12:38.910Z,20.13
2019-01-29T08:15:07.927Z,21.97
2019-01-29T08:17:35.401Z,19.87
2019-01-29T08:20:02.907Z,20.63
2019-01-29T08:22:30.369Z,20.10
2019-01-29T08:25:01.711Z,19.57
2019-01-29T08:27:26.999Z,21.07
2019-01-29T08:29:54.474Z,22.00
2019-01-29T08:32:21.944Z,22.20
2019-01-29T08:34:50.795Z,22.23
2019-01-29T08:37:18.263Z,22.10
2019-01-29T08:39:45.806Z,21.13
2019-01-29T08:42:13.484Z,22.60
2019-01-29T08:44:41.005Z,21.63
2019-01-29T08:47:08.480Z,22.77
2019-01-29T08:49:35.976Z,23.57
2019-01-29T08:52:03.436Z,22.33
2019-01-29T08:54:30.907Z,19.77
2019-01-29T08:56:58.378Z,23.77
2019-01-29T08:59:25.799Z,22.10
2019-01-29T09:01:53.320Z,21.60
2019-01-29T09:04:20.785Z,21.07
2019-01-29T09:06:48.256Z,22.90
2019-01-29T09:09:15.771Z,20.53
2019-01-29T09:11:43.243Z,20.53
2019-01-29T09:14:10.717Z,21.17
2019-01-29T09:16:38.207Z,19.60
2019-01-29T09:19:05.676Z,19.00
2019-01-29T09:21:33.163Z,19.23
2019-01-29T09:24:00.654Z,19.57
2019-01-29T09:26:28.138Z,20.90
2019-01-29T09:28:55.602Z,21.90
2019-01-29T09:31:23.132Z,19.07
2019-01-29T09:33:50.629Z,21.00
2019-01-29T09:36:18.087Z,17.97
2019-01-29T09:38:45.566Z,17.80
2019-01-29T09:41:13.063Z,18.23
2019-01-29T09:43:40.527Z,18.07
2019-01-29T09:46:08.279Z,16.63
2019-01-29T09:48:35.832Z,15.97
2019-01-29T09:51:03.303Z,14.37
2019-01-29T09:53:30.922Z,11.43
2019-01-29T09:55:58.531Z,11.77
2019-01-29T09:58:26.151Z,10.50
2019-01-29T10:00:53.710Z,9.17
2019-01-29T10:03:21.219Z,6.53
2019-01-29T10:05:48.691Z,6.40
2019-01-29T10:08:16.155Z,3.67
2019-01-29T10:10:43.667Z,1.57
2019-01-29T10:13:11.149Z,1.13
2019-01-29T10:15:38.818Z,1.33
2019-01-29T10:18:06.376Z,1.03
2019-01-29T10:20:34.057Z,1.03
2019-01-29T10:23:01.545Z,1.00
2019-01-29T10:25:37.079Z,1.20
2019-01-29T10:27:58.260Z,0.90
2019-01-29T10:30:26.370Z,1.30
2019-01-29T10:32:54.389Z,0.90
2019-01-29T10:35:22.659Z,1.30
2019-01-29T10:37:50.196Z,1.07
2019-01-29T10:40:18.851Z,1.00
2019-01-29T10:42:46.356Z,1.20
2019-01-29T10:45:15.951Z,1.50
2019-01-29T10:47:43.492Z,1.10
2019-01-29T10:50:12.451Z,0.80
2019-01-29T10:52:39.943Z,0.70
2019-01-29T10:55:08.208Z,1.20
2019-01-29T10:57:35.767Z,0.80
2019-01-29T11:00:04.795Z,1.40
2019-01-29T11:02:32.363Z,1.20
2019-01-29T11:04:59.867Z,1.07
2019-01-29T11:07:27.361Z,1.00
2019-01-29T11:09:54.816Z,1.10
2019-01-29T11:12:22.311Z,1.00
2019-01-29T11:14:50.054Z,1.10
2019-01-29T11:17:17.610Z,1.03
2019-01-29T11:19:45.114Z,1.20
2019-01-29T11:22:12.568Z,1.03
2019-01-29T11:24:40.071Z,1.00
2019-01-29T11:27:07.583Z,1.13
2019-01-29T11:29:35.056Z,1.23
2019-01-29T11:32:02.586Z,1.03
2019-01-29T11:34:30.067Z,1.00
2019-01-29T11:36:57.584Z,0.70
2019-01-29T11:39:25.042Z,0.83
2019-01-29T11:41:52.847Z,0.90
2019-01-29T11:44:20.308Z,1.13
2019-01-29T11:46:47.825Z,1.00
2019-01-29T11:49:15.363Z,1.17
2019-01-29T11:51:42.912Z,1.10
2019-01-29T11:54:11.200Z,1.03
2019-01-29T11:56:38.659Z,0.90
2019-01-29T11:59:06.169Z,1.00
2019-01-29T12:01:33.682Z,0.83
2019-01-29T12:04:01.134Z,0.93
2019-01-29T12:06:28.696Z,0.97
2019-01-29T12:08:56.155Z,1.13
2019-01-29T12:11:23.640Z,1.40
2019-01-29T12:13:51.189Z,1.00
2019-01-29T12:16:19.569Z,1.10
2019-01-29T12:18:47.099Z,1.10
2019-01-29T12:21:14.598Z,1.10
2019-01-29T12:23:42.090Z,1.00
2019-01-29T12:26:13.301Z,1.17
2019-01-29T12:28:38.696Z,0.80
2019-01-29T12:31:06.515Z,1.30
2019-01-29T12:33:34.048Z,1.30
2019-01-29T12:36:01.659Z,1.20
2019-01-29T12:38:39.447Z,1.20
2019-01-29T12:41:16.972Z,1.10
2019-01-29T12:43:56.499Z,1.23
2019-01-29T12:46:29.725Z,1.43
2019-01-29T12:48:57.356Z,1.40
2019-01-29T12:51:26.477Z,1.20
2019-01-29T12:54:03.731Z,0.93
2019-01-29T12:56:41.338Z,1.20
2019-01-29T12:59:08.387Z,1.80
2019-01-29T13:01:35.967Z,1.07
2019-01-29T13:04:14.712Z,1.20
2019-01-29T13:06:41.617Z,1.70
2019-01-29T13:09:09.265Z,0.93
2019-01-29T13:11:36.796Z,1.07
2019-01-29T13:14:04.620Z,1.17
2019-01-29T13:16:32.077Z,1.00
2019-01-29T13:18:59.557Z,1.57
2019-01-29T13:21:27.096Z,1.17
2019-01-29T13:23:54.584Z,1.30
2019-01-29T13:26:29.499Z,0.87
2019-01-29T13:28:51.161Z,1.13
2019-01-29T13:31:18.707Z,1.10
2019-01-29T13:33:46.169Z,1.40
2019-01-29T13:36:13.720Z,1.30
2019-01-29T13:38:41.211Z,1.17
2019-01-29T13:41:08.677Z,1.13
2019-01-29T13:43:36.228Z,1.67
2019-01-29T13:46:03.763Z,1.50
2019-01-29T13:48:31.324Z,1.60
2019-01-29T13:50:59.293Z,1.37
2019-01-29T13:53:27.060Z,1.20
2019-01-29T13:55:54.772Z,0.97
2019-01-29T13:58:22.295Z,1.00
2019-01-29T14:00:49.860Z,1.17
2019-01-29T14:03:18.686Z,0.93
2019-01-29T14:05:46.491Z,1.53
2019-01-29T14:08:14.029Z,1.27
2019-01-29T14:10:41.924Z,1.30
2019-01-29T14:13:09.384Z,1.50
2019-01-29T14:15:38.491Z,1.00
2019-01-29T14:18:06.278Z,1.90
2019-01-29T14:20:33.738Z,1.50
2019-01-29T14:23:04.359Z,0.90
2019-01-29T14:25:31.939Z,1.03
2019-01-29T14:27:59.416Z,1.73
2019-01-29T14:30:30.185Z,1.80
2019-01-29T14:32:57.677Z,1.37
2019-01-29T14:35:25.162Z,2.13
2019-01-29T14:38:00.335Z,1.50
2019-01-29T14:40:28.024Z,1.67
2019-01-29T14:42:55.491Z,2.00
2019-01-29T14:45:24.221Z,3.63
2019-01-29T14:47:51.941Z,7.63
2019-01-29T14:50:19.435Z,10.40
2019-01-29T14:52:47.187Z,9.97
2019-01-29T14:55:14.837Z,8.47
2019-01-29T14:57:42.313Z,9.27
2019-01-29T15:00:17.310Z,9.47
2019-01-29T15:02:44.874Z,8.90
2019-01-29T15:05:12.609Z,7.80
2019-01-29T15:07:40.102Z,8.13
2019-01-29T15:10:09.257Z,8.07
2019-01-29T15:12:36.733Z,9.30
2019-01-29T15:15:05.676Z,10.33
2019-01-29T15:17:34.830Z,10.83
2019-01-29T15:20:02.359Z,11.37
2019-01-29T15:22:30.017Z,11.40
2019-01-29T15:24:57.500Z,12.00
2019-01-29T15:27:24.973Z,12.23
2019-01-29T15:29:52.470Z,13.37
2019-01-29T15:32:20.022Z,12.83
2019-01-29T15:34:47.765Z,11.90
2019-01-29T15:37:15.265Z,11.17
2019-01-29T15:39:42.723Z,9.60
2019-01-29T15:42:10.291Z,10.80
2019-01-29T15:44:37.847Z,10.83
2019-01-29T15:47:05.399Z,10.57
2019-01-29T15:49:32.980Z,10.40
2019-01-29T15:52:00.559Z,11.27
2019-01-29T15:54:28.024Z,11.20
2019-01-29T15:56:55.699Z,10.43
2019-01-29T15:59:23.235Z,11.90
2019-01-29T16:01:50.715Z,10.30
2019-01-29T16:04:19.320Z,9.37
2019-01-29T16:06:47.019Z,10.30
2019-01-29T16:09:14.508Z,10.10
2019-01-29T16:11:41.964Z,9.80
2019-01-29T16:14:09.488Z,10.23
2019-01-29T16:16:36.953Z,9.63
2019-01-29T16:19:04.522Z,11.03
2019-01-29T16:21:32.032Z,8.90
2019-01-29T16:23:59.512Z,10.50
2019-01-29T16:26:27.040Z,9.13
2019-01-29T16:28:54.535Z,9.50
2019-01-29T16:31:22.116Z,10.70
2019-01-29T16:33:49.623Z,9.10
2019-01-29T16:36:17.142Z,8.47
2019-01-29T16:38:44.694Z,9.33
2019-01-29T16:41:12.208Z,9.07
2019-01-29T16:43:39.672Z,9.50
2019-01-29T16:46:07.234Z,8.57
2019-01-29T16:48:34.736Z,8.73
2019-01-29T16:51:02.202Z,8.73
2019-01-29T16:53:29.773Z,8.93
2019-01-29T16:55:57.284Z,9.03
2019-01-29T16:58:24.778Z,9.50
2019-01-29T17:00:52.249Z,8.93
2019-01-29T17:03:19.847Z,10.27
2019-01-29T17:05:47.321Z,9.10
2019-01-29T17:08:14.951Z,11.03
2019-01-29T17:10:42.510Z,9.90
2019-01-29T17:13:09.984Z,8.13
2019-01-29T17:15:38.125Z,9.23
2019-01-29T17:18:06.800Z,9.23
2019-01-29T17:20:35.673Z,9.00
2019-01-29T17:23:03.982Z,8.43
2019-01-29T17:25:31.474Z,10.40
2019-01-29T17:27:58.961Z,9.10
2019-01-29T17:30:30.953Z,8.87
2019-01-29T17:32:58.480Z,9.33
2019-01-29T17:35:26.039Z,10.30
2019-01-29T17:37:53.651Z,8.90
2019-01-29T17:40:21.920Z,10.87
2019-01-29T17:42:49.390Z,9.90
2019-01-29T17:45:18.368Z,9.40
2019-01-29T17:47:45.853Z,10.30
2019-01-29T17:50:14.797Z,9.77
2019-01-29T17:52:42.369Z,9.20
2019-01-29T17:55:12.714Z,9.60
2019-01-29T17:57:50.313Z,11.03
2019-01-29T18:00:10.979Z,10.90
2019-01-29T18:02:38.617Z,11.50
2019-01-29T18:05:06.392Z,12.13
2019-01-29T18:07:33.901Z,11.00
2019-01-29T18:10:01.387Z,11.87
2019-01-29T18:12:28.873Z,10.30
2019-01-29T18:14:56.407Z,10.03
2019-01-29T18:17:23.996Z,11.27
2019-01-29T18:19:51.478Z,11.40
2019-01-29T18:22:18.945Z,11.97
2019-01-29T18:24:46.451Z,11.33
2019-01-29T18:27:13.922Z,13.00
2019-01-29T18:29:41.423Z,12.10
2019-01-29T18:32:08.935Z,12.80
2019-01-29T18:34:36.413Z,13.23
2019-01-29T18:37:03.983Z,12.77
2019-01-29T18:39:31.493Z,12.37
2019-01-29T18:41:58.896Z,10.37
2019-01-29T18:44:26.360Z,12.70
2019-01-29T18:46:53.870Z,12.10
2019-01-29T18:49:21.380Z,13.50
2019-01-29T18:51:48.931Z,12.97
2019-01-29T18:54:16.463Z,11.77
2019-01-29T18:56:43.986Z,13.17
2019-01-29T18:59:11.462Z,13.60
2019-01-29T19:01:39.009Z,12.67
2019-01-29T19:04:06.511Z,13.77
2019-01-29T19:06:34.064Z,13.27
2019-01-29T19:09:01.556Z,12.70
2019-01-29T19:11:29.148Z,14.00
2019-01-29T19:13:56.675Z,14.47
2019-01-29T19:16:24.216Z,13.33
2019-01-29T19:18:51.774Z,14.07
2019-01-29T19:21:19.341Z,13.17
2019-01-29T19:23:46.840Z,12.97
2019-01-29T19:26:14.303Z,14.80
2019-01-29T19:28:41.950Z,14.70
2019-01-29T19:31:09.505Z,13.77
2019-01-29T19:33:36.991Z,15.50
2019-01-29T19:36:04.487Z,14.53
2019-01-29T19:38:31.959Z,15.00
2019-01-29T19:40:59.497Z,17.20
2019-01-29T19:43:27.166Z,15.77
2019-01-29T19:45:54.650Z,13.87
2019-01-29T19:48:22.145Z,16.03
2019-01-29T19:50:49.659Z,15.47
2019-01-29T19:53:17.189Z,16.80
2019-01-29T19:55:44.660Z,15.30
2019-01-29T19:58:12.179Z,15.97
2019-01-29T20:00:40.675Z,16.97
2019-01-29T20:03:08.172Z,16.87
2019-01-29T20:05:35.698Z,16.93
2019-01-29T20:08:03.284Z,15.83
2019-01-29T20:10:30.744Z,16.60
2019-01-29T20:12:58.244Z,17.73
2019-01-29T20:15:26.001Z,18.60
2019-01-29T20:17:54.476Z,17.20
2019-01-29T20:20:25.961Z,17.37
2019-01-29T20:22:53.429Z,16.67
2019-01-29T20:25:20.920Z,18.00
2019-01-29T20:27:48.436Z,18.00
2019-01-29T20:30:20.631Z,17.03
2019-01-29T20:32:53.333Z,16.30
2019-01-29T20:35:17.334Z,18.10
2019-01-29T20:37:44.790Z,17.43
2019-01-29T20:40:16.707Z,19.23
2019-01-29T20:42:44.208Z,19.50
2019-01-29T20:45:12.375Z,18.70
2019-01-29T20:47:39.852Z,18.37
2019-01-29T20:50:08.883Z,18.53
2019-01-29T20:52:36.474Z,20.77
2019-01-29T20:55:05.060Z,19.33
2019-01-29T20:57:32.578Z,20.30
2019-01-29T21:00:00.296Z,21.23
2019-01-29T21:02:27.939Z,20.90
2019-01-29T21:04:55.460Z,22.43
2019-01-29T21:07:22.980Z,25.93
2019-01-29T21:09:50.506Z,22.47
2019-01-29T21:12:20.060Z,23.87
2019-01-29T21:14:47.267Z,22.60
2019-01-29T21:17:14.790Z,21.93
2019-01-29T21:19:42.374Z,24.57
2019-01-29T21:22:09.982Z,22.47
2019-01-29T21:24:37.567Z,23.73
2019-01-29T21:27:05.342Z,21.37
2019-01-29T21:29:32.884Z,23.30
2019-01-29T21:32:00.342Z,21.83
2019-01-29T21:34:30.903Z,21.67
2019-01-29T21:36:58.392Z,21.23
2019-01-29T21:39:25.921Z,24.33
2019-01-29T21:41:53.524Z,21.20
2019-01-29T21:44:21.722Z,23.27
2019-01-29T21:46:49.262Z,21.33
2019-01-29T21:49:16.840Z,21.40
2019-01-29T21:51:44.370Z,23.00
2019-01-29T21:54:11.820Z,20.53
2019-01-29T21:56:39.314Z,21.07
2019-01-29T21:59:13.101Z,23.07
2019-01-29T22:01:35.991Z,22.33
2019-01-29T22:04:03.458Z,20.40
2019-01-29T22:06:30.961Z,21.27
2019-01-29T22:08:58.445Z,21.87
2019-01-29T22:11:25.959Z,21.30
2019-01-29T22:13:53.454Z,20.30
2019-01-29T22:16:20.940Z,21.10
2019-01-29T22:18:48.435Z,22.40
2019-01-29T22:21:15.979Z,20.73
2019-01-29T22:23:43.513Z,20.43
2019-01-29T22:26:11.037Z,20.13
2019-01-29T22:28:38.574Z,20.37
2019-01-29T22:31:06.251Z,20.53
2019-01-29T22:33:33.761Z,19.97
2019-01-29T22:36:01.307Z,19.80
2019-01-29T22:38:28.843Z,21.37
2019-01-29T22:40:56.386Z,20.20
2019-01-29T22:43:23.849Z,22.47
2019-01-29T22:45:51.359Z,22.10
2019-01-29T22:48:18.843Z,22.97
2019-01-29T22:50:46.403Z,23.07
2019-01-29T22:53:13.867Z,20.27
2019-01-29T22:55:41.357Z,21.20
2019-01-29T22:58:08.937Z,21.40
2019-01-29T23:00:48.612Z,20.57
2019-01-29T23:03:16.964Z,21.23
2019-01-29T23:05:45.028Z,20.73
2019-01-29T23:08:12.533Z,21.67
2019-01-29T23:10:40.095Z,20.77
2019-01-29T23:13:07.634Z,21.20
2019-01-29T23:15:35.227Z,21.53
2019-01-29T23:18:02.689Z,20.73
2019-01-29T23:20:30.167Z,22.60
2019-01-29T23:22:57.740Z,20.00
2019-01-29T23:25:25.207Z,20.07
2019-01-29T23:27:52.683Z,21.87
2019-01-29T23:30:21.071Z,22.37
2019-01-29T23:32:48.553Z,21.77
2019-01-29T23:35:16.016Z,19.87
2019-01-29T23:37:43.572Z,21.57
2019-01-29T23:40:17.380Z,20.50
2019-01-29T23:42:44.880Z,21.13
2019-01-29T23:45:13.319Z,21.17
2019-01-29T23:47:40.769Z,20.83
2019-01-29T23:50:09.712Z,22.27
2019-01-29T23:52:37.205Z,20.63
2019-01-29T23:55:06.374Z,20.50
2019-01-29T23:57:33.845Z,19.17
